sensor_id;sensor_type;location;lat;lon;timestamp;P1;durP1;ratioP1;P2;durP2;ratioP2
12990;SDS011;6560;57.692;11.958;2023-07-22T00:02:17;2.97;;;2.20;;
12990;SDS011;6560;57.692;11.958;2023-07-22T00:04:45;5.00;;;1.97;;
12990;SDS011;6560;57.692;11.958;2023-07-22T00:07:11;3.17;;;1.57;;
12990;SDS011;6560;57.692;11.958;2023-07-22T00:09:36;2.40;;;1.50;;
12990;SDS011;6560;57.692;11.958;2023-07-22T00:12:04;3.33;;;1.93;;
12990;SDS011;6560;57.692;11.958;2023-07-22T00:14:30;2.20;;;1.27;;
12990;SDS011;6560;57.692;11.958;2023-07-22T00:16:56;5.17;;;1.80;;
12990;SDS011;6560;57.692;11.958;2023-07-22T00:19:21;3.27;;;1.47;;
12990;SDS011;6560;57.692;11.958;2023-07-22T00:21:49;1.60;;;1.30;;
12990;SDS011;6560;57.692;11.958;2023-07-22T00:24:17;2.50;;;1.20;;
12990;SDS011;6560;57.692;11.958;2023-07-22T00:26:43;2.20;;;1.93;;
12990;SDS011;6560;57.692;11.958;2023-07-22T00:29:10;4.07;;;1.83;;
12990;SDS011;6560;57.692;11.958;2023-07-22T00:31:35;2.80;;;2.23;;
12990;SDS011;6560;57.692;11.958;2023-07-22T00:34:01;1.73;;;1.30;;
12990;SDS011;6560;57.692;11.958;2023-07-22T00:36:26;6.70;;;1.77;;
12990;SDS011;6560;57.692;11.958;2023-07-22T00:38:52;2.07;;;1.60;;
12990;SDS011;6560;57.692;11.958;2023-07-22T00:41:18;2.83;;;1.30;;
12990;SDS011;6560;57.692;11.958;2023-07-22T00:43:43;2.77;;;1.47;;
12990;SDS011;6560;57.692;11.958;2023-07-22T00:46:09;4.57;;;1.70;;
12990;SDS011;6560;57.692;11.958;2023-07-22T00:48:34;3.23;;;1.73;;
12990;SDS011;6560;57.692;11.958;2023-07-22T00:51:02;5.93;;;2.37;;
12990;SDS011;6560;57.692;11.958;2023-07-22T00:53:29;1.87;;;1.27;;
12990;SDS011;6560;57.692;11.958;2023-07-22T00:55:54;1.80;;;1.20;;
12990;SDS011;6560;57.692;11.958;2023-07-22T00:58:20;5.20;;;1.60;;
12990;SDS011;6560;57.692;11.958;2023-07-22T01:00:46;3.77;;;1.60;;
12990;SDS011;6560;57.692;11.958;2023-07-22T01:03:12;3.00;;;2.00;;
12990;SDS011;6560;57.692;11.958;2023-07-22T01:05:38;1.57;;;1.30;;
12990;SDS011;6560;57.692;11.958;2023-07-22T01:08:04;2.50;;;1.33;;
12990;SDS011;6560;57.692;11.958;2023-07-22T01:10:31;3.33;;;1.70;;
12990;SDS011;6560;57.692;11.958;2023-07-22T01:12:57;3.83;;;1.50;;
12990;SDS011;6560;57.692;11.958;2023-07-22T01:15:25;3.53;;;1.50;;
12990;SDS011;6560;57.692;11.958;2023-07-22T01:17:52;3.33;;;1.90;;
12990;SDS011;6560;57.692;11.958;2023-07-22T01:20:19;4.53;;;1.80;;
12990;SDS011;6560;57.692;11.958;2023-07-22T01:22:54;2.60;;;1.50;;
12990;SDS011;6560;57.692;11.958;2023-07-22T01:25:21;2.53;;;1.27;;
12990;SDS011;6560;57.692;11.958;2023-07-22T01:27:48;2.93;;;1.77;;
12990;SDS011;6560;57.692;11.958;2023-07-22T01:30:16;1.33;;;1.23;;
12990;SDS011;6560;57.692;11.958;2023-07-22T01:32:42;3.03;;;1.30;;
12990;SDS011;6560;57.692;11.958;2023-07-22T01:35:08;3.80;;;1.73;;
12990;SDS011;6560;57.692;11.958;2023-07-22T01:37:34;2.63;;;1.50;;
12990;SDS011;6560;57.692;11.958;2023-07-22T01:40:00;2.70;;;1.60;;
12990;SDS011;6560;57.692;11.958;2023-07-22T01:42:36;2.43;;;1.37;;
12990;SDS011;6560;57.692;11.958;2023-07-22T01:45:06;2.50;;;1.63;;
12990;SDS011;6560;57.692;11.958;2023-07-22T01:47:37;3.90;;;1.70;;
12990;SDS011;6560;57.692;11.958;2023-07-22T01:50:04;6.20;;;1.40;;
12990;SDS011;6560;57.692;11.958;2023-07-22T01:52:33;4.63;;;1.53;;
12990;SDS011;6560;57.692;11.958;2023-07-22T01:54:59;5.17;;;1.40;;
12990;SDS011;6560;57.692;11.958;2023-07-22T01:57:24;2.23;;;1.40;;
12990;SDS011;6560;57.692;11.958;2023-07-22T01:59:51;7.70;;;1.77;;
12990;SDS011;6560;57.692;11.958;2023-07-22T02:02:17;2.43;;;1.30;;
12990;SDS011;6560;57.692;11.958;2023-07-22T02:04:43;2.30;;;1.00;;
12990;SDS011;6560;57.692;11.958;2023-07-22T02:07:09;2.90;;;0.97;;
12990;SDS011;6560;57.692;11.958;2023-07-22T02:09:35;2.67;;;1.07;;
12990;SDS011;6560;57.692;11.958;2023-07-22T02:12:01;2.70;;;1.33;;
12990;SDS011;6560;57.692;11.958;2023-07-22T02:14:26;2.80;;;1.20;;
12990;SDS011;6560;57.692;11.958;2023-07-22T02:16:52;2.40;;;1.13;;
12990;SDS011;6560;57.692;11.958;2023-07-22T02:19:17;5.93;;;1.43;;
12990;SDS011;6560;57.692;11.958;2023-07-22T02:21:43;2.30;;;1.20;;
12990;SDS011;6560;57.692;11.958;2023-07-22T02:24:09;1.87;;;1.33;;
12990;SDS011;6560;57.692;11.958;2023-07-22T02:26:37;1.13;;;1.00;;
12990;SDS011;6560;57.692;11.958;2023-07-22T02:29:03;1.70;;;0.83;;
12990;SDS011;6560;57.692;11.958;2023-07-22T02:31:29;5.47;;;1.30;;
12990;SDS011;6560;57.692;11.958;2023-07-22T02:33:56;1.87;;;1.10;;
12990;SDS011;6560;57.692;11.958;2023-07-22T02:36:21;2.17;;;0.97;;
12990;SDS011;6560;57.692;11.958;2023-07-22T02:38:47;3.07;;;1.20;;
12990;SDS011;6560;57.692;11.958;2023-07-22T02:41:12;1.80;;;1.13;;
12990;SDS011;6560;57.692;11.958;2023-07-22T02:43:39;1.87;;;1.00;;
12990;SDS011;6560;57.692;11.958;2023-07-22T02:46:05;3.47;;;1.40;;
12990;SDS011;6560;57.692;11.958;2023-07-22T02:48:51;3.73;;;1.23;;
12990;SDS011;6560;57.692;11.958;2023-07-22T02:51:16;1.60;;;0.70;;
12990;SDS011;6560;57.692;11.958;2023-07-22T02:53:43;0.73;;;0.73;;
12990;SDS011;6560;57.692;11.958;2023-07-22T02:56:11;6.23;;;1.20;;
12990;SDS011;6560;57.692;11.958;2023-07-22T02:58:37;1.00;;;0.80;;
12990;SDS011;6560;57.692;11.958;2023-07-22T03:01:04;2.03;;;0.63;;
12990;SDS011;6560;57.692;11.958;2023-07-22T03:03:32;3.57;;;1.00;;
12990;SDS011;6560;57.692;11.958;2023-07-22T03:05:58;3.97;;;1.00;;
12990;SDS011;6560;57.692;11.958;2023-07-22T03:08:24;1.93;;;0.70;;
12990;SDS011;6560;57.692;11.958;2023-07-22T03:10:51;2.47;;;1.00;;
12990;SDS011;6560;57.692;11.958;2023-07-22T03:13:17;2.07;;;1.03;;
12990;SDS011;6560;57.692;11.958;2023-07-22T03:15:43;2.73;;;1.20;;
12990;SDS011;6560;57.692;11.958;2023-07-22T03:18:09;2.50;;;1.00;;
12990;SDS011;6560;57.692;11.958;2023-07-22T03:20:35;3.43;;;1.13;;
12990;SDS011;6560;57.692;11.958;2023-07-22T03:23:02;3.40;;;0.97;;
12990;SDS011;6560;57.692;11.958;2023-07-22T03:25:28;2.57;;;1.10;;
12990;SDS011;6560;57.692;11.958;2023-07-22T03:27:53;2.93;;;0.87;;
12990;SDS011;6560;57.692;11.958;2023-07-22T03:30:21;1.97;;;0.80;;
12990;SDS011;6560;57.692;11.958;2023-07-22T03:32:47;2.87;;;1.07;;
12990;SDS011;6560;57.692;11.958;2023-07-22T03:35:14;2.40;;;1.00;;
12990;SDS011;6560;57.692;11.958;2023-07-22T03:37:40;7.10;;;1.17;;
12990;SDS011;6560;57.692;11.958;2023-07-22T03:40:06;2.70;;;0.93;;
12990;SDS011;6560;57.692;11.958;2023-07-22T03:42:38;4.83;;;1.10;;
12990;SDS011;6560;57.692;11.958;2023-07-22T03:45:04;2.60;;;1.10;;
12990;SDS011;6560;57.692;11.958;2023-07-22T03:47:31;3.20;;;1.50;;
12990;SDS011;6560;57.692;11.958;2023-07-22T03:49:57;3.17;;;1.27;;
12990;SDS011;6560;57.692;11.958;2023-07-22T03:52:23;3.90;;;1.07;;
12990;SDS011;6560;57.692;11.958;2023-07-22T03:54:48;2.17;;;1.10;;
12990;SDS011;6560;57.692;11.958;2023-07-22T03:57:14;1.23;;;1.02;;
12990;SDS011;6560;57.692;11.958;2023-07-22T03:59:39;2.70;;;1.15;;
12990;SDS011;6560;57.692;11.958;2023-07-22T04:02:05;2.15;;;1.08;;
12990;SDS011;6560;57.692;11.958;2023-07-22T04:04:31;3.35;;;1.08;;
12990;SDS011;6560;57.692;11.958;2023-07-22T04:06:56;3.83;;;1.15;;
12990;SDS011;6560;57.692;11.958;2023-07-22T04:09:22;5.78;;;1.65;;
12990;SDS011;6560;57.692;11.958;2023-07-22T04:11:48;3.05;;;1.33;;
12990;SDS011;6560;57.692;11.958;2023-07-22T04:14:13;4.70;;;1.20;;
12990;SDS011;6560;57.692;11.958;2023-07-22T04:16:39;1.55;;;1.10;;
12990;SDS011;6560;57.692;11.958;2023-07-22T04:19:05;3.55;;;0.98;;
12990;SDS011;6560;57.692;11.958;2023-07-22T04:21:31;3.13;;;1.23;;
12990;SDS011;6560;57.692;11.958;2023-07-22T04:23:56;2.13;;;0.95;;
12990;SDS011;6560;57.692;11.958;2023-07-22T04:26:22;2.30;;;1.20;;
12990;SDS011;6560;57.692;11.958;2023-07-22T04:28:48;3.00;;;0.93;;
12990;SDS011;6560;57.692;11.958;2023-07-22T04:31:13;4.22;;;1.10;;
12990;SDS011;6560;57.692;11.958;2023-07-22T04:33:39;7.47;;;1.40;;
12990;SDS011;6560;57.692;11.958;2023-07-22T04:36:06;2.13;;;0.80;;
12990;SDS011;6560;57.692;11.958;2023-07-22T04:38:32;3.72;;;1.20;;
12990;SDS011;6560;57.692;11.958;2023-07-22T04:40:58;1.77;;;0.90;;
12990;SDS011;6560;57.692;11.958;2023-07-22T04:43:25;2.35;;;1.05;;
12990;SDS011;6560;57.692;11.958;2023-07-22T04:45:51;2.42;;;1.10;;
12990;SDS011;6560;57.692;11.958;2023-07-22T04:48:18;5.75;;;1.23;;
12990;SDS011;6560;57.692;11.958;2023-07-22T04:50:45;3.33;;;1.50;;
12990;SDS011;6560;57.692;11.958;2023-07-22T04:53:11;1.80;;;0.98;;
12990;SDS011;6560;57.692;11.958;2023-07-22T04:55:40;5.75;;;1.27;;
12990;SDS011;6560;57.692;11.958;2023-07-22T04:58:06;1.17;;;0.60;;
12990;SDS011;6560;57.692;11.958;2023-07-22T05:00:34;1.65;;;1.08;;
12990;SDS011;6560;57.692;11.958;2023-07-22T05:03:00;2.65;;;0.95;;
12990;SDS011;6560;57.692;11.958;2023-07-22T05:05:25;1.15;;;0.90;;
12990;SDS011;6560;57.692;11.958;2023-07-22T05:07:51;1.27;;;1.08;;
12990;SDS011;6560;57.692;11.958;2023-07-22T05:10:18;4.45;;;1.23;;
12990;SDS011;6560;57.692;11.958;2023-07-22T05:12:44;3.72;;;1.42;;
12990;SDS011;6560;57.692;11.958;2023-07-22T05:15:10;1.00;;;0.75;;
12990;SDS011;6560;57.692;11.958;2023-07-22T05:17:36;1.77;;;1.00;;
12990;SDS011;6560;57.692;11.958;2023-07-22T05:20:02;3.33;;;1.15;;
12990;SDS011;6560;57.692;11.958;2023-07-22T05:22:31;2.35;;;0.88;;
12990;SDS011;6560;57.692;11.958;2023-07-22T05:24:58;4.30;;;1.35;;
12990;SDS011;6560;57.692;11.958;2023-07-22T05:27:24;2.17;;;1.42;;
12990;SDS011;6560;57.692;11.958;2023-07-22T05:29:50;2.75;;;1.42;;
12990;SDS011;6560;57.692;11.958;2023-07-22T05:32:17;3.95;;;1.35;;
12990;SDS011;6560;57.692;11.958;2023-07-22T05:34:42;2.90;;;1.15;;
12990;SDS011;6560;57.692;11.958;2023-07-22T05:37:08;3.10;;;0.93;;
12990;SDS011;6560;57.692;11.958;2023-07-22T05:39:34;3.58;;;1.30;;
12990;SDS011;6560;57.692;11.958;2023-07-22T05:42:00;2.97;;;0.95;;
12990;SDS011;6560;57.692;11.958;2023-07-22T05:44:25;4.53;;;0.80;;
12990;SDS011;6560;57.692;11.958;2023-07-22T05:46:51;1.23;;;0.70;;
12990;SDS011;6560;57.692;11.958;2023-07-22T05:49:18;1.80;;;0.68;;
12990;SDS011;6560;57.692;11.958;2023-07-22T05:51:43;2.92;;;1.08;;
12990;SDS011;6560;57.692;11.958;2023-07-22T05:54:09;1.40;;;0.63;;
12990;SDS011;6560;57.692;11.958;2023-07-22T05:56:34;1.58;;;0.60;;
12990;SDS011;6560;57.692;11.958;2023-07-22T05:59:00;1.85;;;1.08;;
12990;SDS011;6560;57.692;11.958;2023-07-22T06:01:25;2.28;;;1.15;;
12990;SDS011;6560;57.692;11.958;2023-07-22T06:03:52;1.85;;;0.75;;
12990;SDS011;6560;57.692;11.958;2023-07-22T06:06:19;2.25;;;0.95;;
12990;SDS011;6560;57.692;11.958;2023-07-22T06:08:44;1.73;;;1.02;;
12990;SDS011;6560;57.692;11.958;2023-07-22T06:11:11;2.80;;;1.10;;
12990;SDS011;6560;57.692;11.958;2023-07-22T06:13:36;2.95;;;0.98;;
12990;SDS011;6560;57.692;11.958;2023-07-22T06:16:02;3.55;;;1.15;;
12990;SDS011;6560;57.692;11.958;2023-07-22T06:18:31;2.53;;;0.80;;
12990;SDS011;6560;57.692;11.958;2023-07-22T06:20:56;2.40;;;0.73;;
12990;SDS011;6560;57.692;11.958;2023-07-22T06:23:22;1.90;;;0.95;;
12990;SDS011;6560;57.692;11.958;2023-07-22T06:25:49;1.70;;;0.80;;
12990;SDS011;6560;57.692;11.958;2023-07-22T06:28:15;1.58;;;0.90;;
12990;SDS011;6560;57.692;11.958;2023-07-22T06:30:41;1.02;;;0.88;;
12990;SDS011;6560;57.692;11.958;2023-07-22T06:33:06;2.53;;;0.88;;
12990;SDS011;6560;57.692;11.958;2023-07-22T06:35:32;2.53;;;0.73;;
12990;SDS011;6560;57.692;11.958;2023-07-22T06:37:58;1.45;;;1.00;;
12990;SDS011;6560;57.692;11.958;2023-07-22T06:40:24;1.83;;;1.10;;
12990;SDS011;6560;57.692;11.958;2023-07-22T06:42:50;2.30;;;0.93;;
12990;SDS011;6560;57.692;11.958;2023-07-22T06:45:16;4.82;;;1.30;;
12990;SDS011;6560;57.692;11.958;2023-07-22T06:47:42;4.78;;;1.20;;
12990;SDS011;6560;57.692;11.958;2023-07-22T06:50:09;1.58;;;0.75;;
12990;SDS011;6560;57.692;11.958;2023-07-22T06:52:35;0.77;;;0.70;;
12990;SDS011;6560;57.692;11.958;2023-07-22T06:55:01;2.03;;;0.90;;
12990;SDS011;6560;57.692;11.958;2023-07-22T06:57:28;3.70;;;1.00;;
12990;SDS011;6560;57.692;11.958;2023-07-22T06:59:54;1.20;;;0.80;;
12990;SDS011;6560;57.692;11.958;2023-07-22T07:02:21;0.75;;;0.60;;
12990;SDS011;6560;57.692;11.958;2023-07-22T07:04:48;2.17;;;0.95;;
12990;SDS011;6560;57.692;11.958;2023-07-22T07:07:14;1.88;;;0.73;;
12990;SDS011;6560;57.692;11.958;2023-07-22T07:09:41;1.15;;;0.60;;
12990;SDS011;6560;57.692;11.958;2023-07-22T07:12:06;4.35;;;0.85;;
12990;SDS011;6560;57.692;11.958;2023-07-22T07:14:33;1.38;;;0.50;;
12990;SDS011;6560;57.692;11.958;2023-07-22T07:16:59;4.07;;;1.13;;
12990;SDS011;6560;57.692;11.958;2023-07-22T07:19:25;1.20;;;0.70;;
12990;SDS011;6560;57.692;11.958;2023-07-22T07:21:52;2.20;;;0.80;;
12990;SDS011;6560;57.692;11.958;2023-07-22T07:24:18;1.42;;;0.70;;
12990;SDS011;6560;57.692;11.958;2023-07-22T07:26:44;1.35;;;0.85;;
12990;SDS011;6560;57.692;11.958;2023-07-22T07:29:11;1.30;;;0.50;;
12990;SDS011;6560;57.692;11.958;2023-07-22T07:31:37;2.47;;;1.00;;
12990;SDS011;6560;57.692;11.958;2023-07-22T07:34:03;1.88;;;0.90;;
12990;SDS011;6560;57.692;11.958;2023-07-22T07:36:29;2.13;;;0.70;;
12990;SDS011;6560;57.692;11.958;2023-07-22T07:38:55;1.02;;;0.70;;
12990;SDS011;6560;57.692;11.958;2023-07-22T07:41:22;4.78;;;1.13;;
12990;SDS011;6560;57.692;11.958;2023-07-22T07:43:48;1.00;;;0.55;;
12990;SDS011;6560;57.692;11.958;2023-07-22T07:46:21;2.05;;;0.90;;
12990;SDS011;6560;57.692;11.958;2023-07-22T07:48:52;0.88;;;0.60;;
12990;SDS011;6560;57.692;11.958;2023-07-22T07:51:19;2.67;;;0.80;;
12990;SDS011;6560;57.692;11.958;2023-07-22T07:53:49;2.67;;;0.73;;
12990;SDS011;6560;57.692;11.958;2023-07-22T07:56:17;1.52;;;0.70;;
12990;SDS011;6560;57.692;11.958;2023-07-22T07:58:44;1.30;;;0.68;;
12990;SDS011;6560;57.692;11.958;2023-07-22T08:01:12;1.10;;;0.52;;
12990;SDS011;6560;57.692;11.958;2023-07-22T08:03:38;1.60;;;0.80;;
12990;SDS011;6560;57.692;11.958;2023-07-22T08:06:07;1.83;;;0.88;;
12990;SDS011;6560;57.692;11.958;2023-07-22T08:08:33;1.27;;;0.88;;
12990;SDS011;6560;57.692;11.958;2023-07-22T08:11:01;1.70;;;0.82;;
12990;SDS011;6560;57.692;11.958;2023-07-22T08:13:35;0.90;;;0.63;;
12990;SDS011;6560;57.692;11.958;2023-07-22T08:16:02;0.60;;;0.60;;
12990;SDS011;6560;57.692;11.958;2023-07-22T08:18:33;1.67;;;0.75;;
12990;SDS011;6560;57.692;11.958;2023-07-22T08:20:59;2.35;;;0.77;;
12990;SDS011;6560;57.692;11.958;2023-07-22T08:23:28;4.35;;;0.80;;
12990;SDS011;6560;57.692;11.958;2023-07-22T08:25:54;2.63;;;0.90;;
12990;SDS011;6560;57.692;11.958;2023-07-22T08:28:19;1.58;;;0.70;;
12990;SDS011;6560;57.692;11.958;2023-07-22T08:30:47;1.35;;;0.60;;
12990;SDS011;6560;57.692;11.958;2023-07-22T08:33:14;1.40;;;0.75;;
12990;SDS011;6560;57.692;11.958;2023-07-22T08:35:39;2.05;;;1.10;;
12990;SDS011;6560;57.692;11.958;2023-07-22T08:38:06;1.40;;;0.77;;
12990;SDS011;6560;57.692;11.958;2023-07-22T08:40:41;2.15;;;0.95;;
12990;SDS011;6560;57.692;11.958;2023-07-22T08:43:08;1.08;;;0.40;;
12990;SDS011;6560;57.692;11.958;2023-07-22T08:45:38;2.30;;;0.90;;
12990;SDS011;6560;57.692;11.958;2023-07-22T08:48:06;2.22;;;0.85;;
12990;SDS011;6560;57.692;11.958;2023-07-22T08:50:35;1.05;;;0.55;;
12990;SDS011;6560;57.692;11.958;2023-07-22T08:53:08;1.77;;;0.90;;
12990;SDS011;6560;57.692;11.958;2023-07-22T08:55:36;2.80;;;0.63;;
12990;SDS011;6560;57.692;11.958;2023-07-22T08:58:10;0.45;;;0.43;;
12990;SDS011;6560;57.692;11.958;2023-07-22T09:00:36;1.25;;;0.70;;
12990;SDS011;6560;57.692;11.958;2023-07-22T09:03:03;3.85;;;0.63;;
12990;SDS011;6560;57.692;11.958;2023-07-22T09:05:31;2.50;;;0.68;;
12990;SDS011;6560;57.692;11.958;2023-07-22T09:07:58;1.17;;;0.73;;
12990;SDS011;6560;57.692;11.958;2023-07-22T09:10:24;1.13;;;0.40;;
12990;SDS011;6560;57.692;11.958;2023-07-22T09:12:52;0.80;;;0.50;;
12990;SDS011;6560;57.692;11.958;2023-07-22T09:15:19;3.45;;;0.70;;
12990;SDS011;6560;57.692;11.958;2023-07-22T09:17:46;1.33;;;0.45;;
12990;SDS011;6560;57.692;11.958;2023-07-22T09:20:12;1.73;;;0.90;;
12990;SDS011;6560;57.692;11.958;2023-07-22T09:22:49;2.55;;;1.05;;
12990;SDS011;6560;57.692;11.958;2023-07-22T09:25:25;1.02;;;0.82;;
12990;SDS011;6560;57.692;11.958;2023-07-22T09:28:11;1.33;;;0.73;;
12990;SDS011;6560;57.692;11.958;2023-07-22T09:30:37;1.95;;;1.02;;
12990;SDS011;6560;57.692;11.958;2023-07-22T09:33:05;1.95;;;0.70;;
12990;SDS011;6560;57.692;11.958;2023-07-22T09:38:15;2.05;;;0.60;;
12990;SDS011;6560;57.692;11.958;2023-07-22T09:40:48;1.35;;;0.68;;
12990;SDS011;6560;57.692;11.958;2023-07-22T09:43:14;1.23;;;0.63;;
12990;SDS011;6560;57.692;11.958;2023-07-22T09:45:39;2.35;;;0.80;;
12990;SDS011;6560;57.692;11.958;2023-07-22T09:48:08;1.10;;;0.40;;
12990;SDS011;6560;57.692;11.958;2023-07-22T09:50:36;3.55;;;0.68;;
12990;SDS011;6560;57.692;11.958;2023-07-22T09:53:03;0.65;;;0.55;;
12990;SDS011;6560;57.692;11.958;2023-07-22T09:55:30;1.08;;;0.70;;
12990;SDS011;6560;57.692;11.958;2023-07-22T09:58:03;3.08;;;0.80;;
12990;SDS011;6560;57.692;11.958;2023-07-22T10:00:36;3.05;;;0.85;;
12990;SDS011;6560;57.692;11.958;2023-07-22T10:03:02;1.13;;;0.50;;
12990;SDS011;6560;57.692;11.958;2023-07-22T10:05:33;2.17;;;0.95;;
12990;SDS011;6560;57.692;11.958;2023-07-22T10:08:01;1.95;;;0.63;;
12990;SDS011;6560;57.692;11.958;2023-07-22T10:10:35;2.08;;;1.00;;
12990;SDS011;6560;57.692;11.958;2023-07-22T10:13:03;0.90;;;0.70;;
12990;SDS011;6560;57.692;11.958;2023-07-22T10:15:31;0.93;;;0.68;;
12990;SDS011;6560;57.692;11.958;2023-07-22T10:18:04;1.90;;;0.93;;
12990;SDS011;6560;57.692;11.958;2023-07-22T10:20:33;1.13;;;0.70;;
12990;SDS011;6560;57.692;11.958;2023-07-22T10:23:01;1.30;;;0.65;;
12990;SDS011;6560;57.692;11.958;2023-07-22T10:25:27;2.75;;;0.90;;
12990;SDS011;6560;57.692;11.958;2023-07-22T10:27:54;3.38;;;1.10;;
12990;SDS011;6560;57.692;11.958;2023-07-22T10:30:19;1.52;;;1.00;;
12990;SDS011;6560;57.692;11.958;2023-07-22T10:32:47;1.20;;;0.82;;
12990;SDS011;6560;57.692;11.958;2023-07-22T10:37:54;0.57;;;0.55;;
12990;SDS011;6560;57.692;11.958;2023-07-22T10:43:14;1.23;;;0.70;;
12990;SDS011;6560;57.692;11.958;2023-07-22T10:45:43;2.53;;;0.93;;
12990;SDS011;6560;57.692;11.958;2023-07-22T10:48:16;1.33;;;0.70;;
12990;SDS011;6560;57.692;11.958;2023-07-22T10:53:28;3.97;;;0.85;;
12990;SDS011;6560;57.692;11.958;2023-07-22T10:56:05;2.22;;;0.95;;
12990;SDS011;6560;57.692;11.958;2023-07-22T11:07:03;2.00;;;0.75;;
12990;SDS011;6560;57.692;11.958;2023-07-22T11:12:05;1.40;;;0.80;;
12990;SDS011;6560;57.692;11.958;2023-07-22T11:14:35;1.60;;;0.82;;
12990;SDS011;6560;57.692;11.958;2023-07-22T11:17:04;2.70;;;1.48;;
12990;SDS011;6560;57.692;11.958;2023-07-22T11:19:31;1.33;;;0.88;;
12990;SDS011;6560;57.692;11.958;2023-07-22T11:21:59;1.95;;;1.00;;
12990;SDS011;6560;57.692;11.958;2023-07-22T11:24:25;1.33;;;0.90;;
12990;SDS011;6560;57.692;11.958;2023-07-22T11:26:53;1.58;;;1.13;;
12990;SDS011;6560;57.692;11.958;2023-07-22T11:29:19;1.25;;;0.98;;
12990;SDS011;6560;57.692;11.958;2023-07-22T11:31:45;3.95;;;1.00;;
12990;SDS011;6560;57.692;11.958;2023-07-22T11:34:13;2.17;;;1.52;;
12990;SDS011;6560;57.692;11.958;2023-07-22T11:36:43;4.63;;;1.10;;
12990;SDS011;6560;57.692;11.958;2023-07-22T11:39:13;2.42;;;1.02;;
12990;SDS011;6560;57.692;11.958;2023-07-22T11:41:40;1.08;;;0.82;;
12990;SDS011;6560;57.692;11.958;2023-07-22T11:44:06;3.08;;;0.68;;
12990;SDS011;6560;57.692;11.958;2023-07-22T11:49:23;1.67;;;0.82;;
12990;SDS011;6560;57.692;11.958;2023-07-22T11:51:49;1.17;;;0.68;;
12990;SDS011;6560;57.692;11.958;2023-07-22T11:54:15;0.85;;;0.73;;
12990;SDS011;6560;57.692;11.958;2023-07-22T11:56:42;2.03;;;1.00;;
12990;SDS011;6560;57.692;11.958;2023-07-22T11:59:11;4.55;;;1.30;;
12990;SDS011;6560;57.692;11.958;2023-07-22T12:01:37;3.00;;;1.15;;
12990;SDS011;6560;57.692;11.958;2023-07-22T12:04:08;3.10;;;1.10;;
12990;SDS011;6560;57.692;11.958;2023-07-22T12:06:38;2.70;;;1.10;;
12990;SDS011;6560;57.692;11.958;2023-07-22T12:09:04;1.75;;;1.00;;
12990;SDS011;6560;57.692;11.958;2023-07-22T12:11:32;1.70;;;1.00;;
12990;SDS011;6560;57.692;11.958;2023-07-22T12:14:11;1.20;;;0.88;;
12990;SDS011;6560;57.692;11.958;2023-07-22T12:16:39;1.77;;;1.20;;
12990;SDS011;6560;57.692;11.958;2023-07-22T12:19:07;0.93;;;0.80;;
12990;SDS011;6560;57.692;11.958;2023-07-22T12:21:34;1.27;;;0.90;;
12990;SDS011;6560;57.692;11.958;2023-07-22T12:24:00;1.23;;;0.70;;
12990;SDS011;6560;57.692;11.958;2023-07-22T12:26:26;2.58;;;1.30;;
12990;SDS011;6560;57.692;11.958;2023-07-22T12:28:52;2.38;;;1.13;;
12990;SDS011;6560;57.692;11.958;2023-07-22T12:31:18;1.13;;;0.93;;
12990;SDS011;6560;57.692;11.958;2023-07-22T12:33:43;1.48;;;0.95;;
12990;SDS011;6560;57.692;11.958;2023-07-22T12:36:09;4.57;;;1.23;;
12990;SDS011;6560;57.692;11.958;2023-07-22T12:38:35;1.10;;;0.80;;
12990;SDS011;6560;57.692;11.958;2023-07-22T12:41:02;1.27;;;0.47;;
12990;SDS011;6560;57.692;11.958;2023-07-22T12:43:28;2.67;;;0.95;;
12990;SDS011;6560;57.692;11.958;2023-07-22T12:45:54;1.50;;;0.82;;
12990;SDS011;6560;57.692;11.958;2023-07-22T12:48:20;2.10;;;0.70;;
12990;SDS011;6560;57.692;11.958;2023-07-22T12:50:45;1.17;;;0.70;;
12990;SDS011;6560;57.692;11.958;2023-07-22T12:53:16;0.73;;;0.57;;
12990;SDS011;6560;57.692;11.958;2023-07-22T12:55:42;2.05;;;0.63;;
12990;SDS011;6560;57.692;11.958;2023-07-22T12:58:09;2.40;;;1.02;;
12990;SDS011;6560;57.692;11.958;2023-07-22T13:00:35;1.25;;;0.63;;
12990;SDS011;6560;57.692;11.958;2023-07-22T13:03:03;2.60;;;0.95;;
12990;SDS011;6560;57.692;11.958;2023-07-22T13:05:28;2.95;;;0.85;;
12990;SDS011;6560;57.692;11.958;2023-07-22T13:07:54;1.70;;;0.80;;
12990;SDS011;6560;57.692;11.958;2023-07-22T13:10:20;2.08;;;0.90;;
12990;SDS011;6560;57.692;11.958;2023-07-22T13:12:49;2.83;;;0.90;;
12990;SDS011;6560;57.692;11.958;2023-07-22T13:15:14;2.45;;;1.33;;
12990;SDS011;6560;57.692;11.958;2023-07-22T13:17:39;0.77;;;0.77;;
12990;SDS011;6560;57.692;11.958;2023-07-22T13:20:05;2.10;;;0.93;;
12990;SDS011;6560;57.692;11.958;2023-07-22T13:22:43;1.33;;;0.73;;
12990;SDS011;6560;57.692;11.958;2023-07-22T13:25:09;0.80;;;0.52;;
12990;SDS011;6560;57.692;11.958;2023-07-22T13:27:35;3.08;;;0.90;;
12990;SDS011;6560;57.692;11.958;2023-07-22T13:30:01;2.10;;;1.05;;
12990;SDS011;6560;57.692;11.958;2023-07-22T13:32:27;1.52;;;0.80;;
12990;SDS011;6560;57.692;11.958;2023-07-22T13:34:52;1.75;;;0.80;;
12990;SDS011;6560;57.692;11.958;2023-07-22T13:37:18;1.17;;;0.77;;
12990;SDS011;6560;57.692;11.958;2023-07-22T13:39:43;3.40;;;1.10;;
12990;SDS011;6560;57.692;11.958;2023-07-22T13:42:09;2.63;;;0.98;;
12990;SDS011;6560;57.692;11.958;2023-07-22T13:44:35;0.95;;;0.65;;
12990;SDS011;6560;57.692;11.958;2023-07-22T13:47:03;2.50;;;0.95;;
12990;SDS011;6560;57.692;11.958;2023-07-22T13:49:29;2.28;;;0.90;;
12990;SDS011;6560;57.692;11.958;2023-07-22T13:51:55;1.85;;;0.98;;
12990;SDS011;6560;57.692;11.958;2023-07-22T13:54:21;2.05;;;0.90;;
12990;SDS011;6560;57.692;11.958;2023-07-22T13:56:46;2.40;;;0.93;;
12990;SDS011;6560;57.692;11.958;2023-07-22T13:59:13;2.25;;;0.73;;
12990;SDS011;6560;57.692;11.958;2023-07-22T14:01:39;0.70;;;0.60;;
12990;SDS011;6560;57.692;11.958;2023-07-22T14:04:04;1.27;;;0.77;;
12990;SDS011;6560;57.692;11.958;2023-07-22T14:06:30;2.10;;;0.80;;
12990;SDS011;6560;57.692;11.958;2023-07-22T14:08:58;1.33;;;0.65;;
12990;SDS011;6560;57.692;11.958;2023-07-22T14:11:24;1.75;;;0.57;;
12990;SDS011;6560;57.692;11.958;2023-07-22T14:13:50;3.25;;;1.00;;
12990;SDS011;6560;57.692;11.958;2023-07-22T14:16:17;1.42;;;0.60;;
12990;SDS011;6560;57.692;11.958;2023-07-22T14:18:43;0.82;;;0.60;;
12990;SDS011;6560;57.692;11.958;2023-07-22T14:21:09;1.55;;;0.70;;
12990;SDS011;6560;57.692;11.958;2023-07-22T14:23:36;2.60;;;0.85;;
12990;SDS011;6560;57.692;11.958;2023-07-22T14:26:02;1.85;;;0.50;;
12990;SDS011;6560;57.692;11.958;2023-07-22T14:28:27;1.10;;;0.68;;
12990;SDS011;6560;57.692;11.958;2023-07-22T14:30:53;2.35;;;0.60;;
12990;SDS011;6560;57.692;11.958;2023-07-22T14:33:18;2.05;;;0.77;;
12990;SDS011;6560;57.692;11.958;2023-07-22T14:35:45;2.50;;;0.90;;
12990;SDS011;6560;57.692;11.958;2023-07-22T14:38:11;1.30;;;0.57;;
12990;SDS011;6560;57.692;11.958;2023-07-22T14:40:36;1.55;;;0.63;;
12990;SDS011;6560;57.692;11.958;2023-07-22T14:43:03;2.42;;;1.00;;
12990;SDS011;6560;57.692;11.958;2023-07-22T14:45:30;2.47;;;0.77;;
12990;SDS011;6560;57.692;11.958;2023-07-22T14:47:55;1.63;;;0.60;;
12990;SDS011;6560;57.692;11.958;2023-07-22T14:50:21;3.05;;;0.85;;
12990;SDS011;6560;57.692;11.958;2023-07-22T14:52:48;3.22;;;1.00;;
12990;SDS011;6560;57.692;11.958;2023-07-22T14:55:14;2.30;;;0.68;;
12990;SDS011;6560;57.692;11.958;2023-07-22T14:57:40;1.52;;;0.47;;
12990;SDS011;6560;57.692;11.958;2023-07-22T15:00:07;1.58;;;0.60;;
12990;SDS011;6560;57.692;11.958;2023-07-22T15:02:33;1.25;;;0.57;;
12990;SDS011;6560;57.692;11.958;2023-07-22T15:04:58;0.60;;;0.47;;
12990;SDS011;6560;57.692;11.958;2023-07-22T15:07:27;1.05;;;0.50;;
12990;SDS011;6560;57.692;11.958;2023-07-22T15:09:53;3.05;;;0.65;;
12990;SDS011;6560;57.692;11.958;2023-07-22T15:12:19;1.42;;;0.80;;